sensor_id;sensor_type;location;lat;lon;timestamp;P1;durP1;ratioP1;P2;durP2;ratioP2
56537;SDS011;42435;53.292;6.000;2023-04-24T00:01:47;8.88;;;5.18;;
56537;SDS011;42435;53.292;6.000;2023-04-24T00:04:12;8.55;;;5.30;;
56537;SDS011;42435;53.292;6.000;2023-04-24T00:06:41;7.15;;;5.43;;
56537;SDS011;42435;53.292;6.000;2023-04-24T00:09:18;9.10;;;5.65;;
56537;SDS011;42435;53.292;6.000;2023-04-24T00:11:44;8.07;;;5.70;;
56537;SDS011;42435;53.292;6.000;2023-04-24T00:14:09;7.78;;;6.00;;
56537;SDS011;42435;53.292;6.000;2023-04-24T00:16:35;7.70;;;5.72;;
56537;SDS011;42435;53.292;6.000;2023-04-24T00:19:03;8.30;;;6.28;;
56537;SDS011;42435;53.292;6.000;2023-04-24T00:21:30;8.90;;;5.97;;
56537;SDS011;42435;53.292;6.000;2023-04-24T00:23:57;8.88;;;6.18;;
56537;SDS011;42435;53.292;6.000;2023-04-24T00:26:23;10.00;;;6.45;;
56537;SDS011;42435;53.292;6.000;2023-04-24T00:28:51;12.70;;;7.40;;
56537;SDS011;42435;53.292;6.000;2023-04-24T00:31:17;19.02;;;8.93;;
56537;SDS011;42435;53.292;6.000;2023-04-24T00:33:43;9.85;;;7.32;;
56537;SDS011;42435;53.292;6.000;2023-04-24T00:36:08;6.95;;;6.25;;
56537;SDS011;42435;53.292;6.000;2023-04-24T00:38:34;9.30;;;7.03;;
56537;SDS011;42435;53.292;6.000;2023-04-24T00:41:00;8.43;;;6.47;;
56537;SDS011;42435;53.292;6.000;2023-04-24T00:43:25;9.80;;;7.43;;
56537;SDS011;42435;53.292;6.000;2023-04-24T00:45:51;11.95;;;7.20;;
56537;SDS011;42435;53.292;6.000;2023-04-24T00:48:16;8.43;;;6.85;;
56537;SDS011;42435;53.292;6.000;2023-04-24T00:50:46;8.68;;;7.00;;
56537;SDS011;42435;53.292;6.000;2023-04-24T00:53:11;9.77;;;6.72;;
56537;SDS011;42435;53.292;6.000;2023-04-24T00:55:37;8.82;;;7.30;;
56537;SDS011;42435;53.292;6.000;2023-04-24T00:58:03;10.10;;;6.60;;
56537;SDS011;42435;53.292;6.000;2023-04-24T01:00:29;9.13;;;7.00;;
56537;SDS011;42435;53.292;6.000;2023-04-24T01:02:55;9.68;;;7.22;;
56537;SDS011;42435;53.292;6.000;2023-04-24T01:05:24;9.95;;;7.25;;
56537;SDS011;42435;53.292;6.000;2023-04-24T01:07:50;8.15;;;6.43;;
56537;SDS011;42435;53.292;6.000;2023-04-24T01:10:16;7.90;;;6.85;;
56537;SDS011;42435;53.292;6.000;2023-04-24T01:12:42;8.35;;;6.80;;
56537;SDS011;42435;53.292;6.000;2023-04-24T01:15:08;8.73;;;7.50;;
56537;SDS011;42435;53.292;6.000;2023-04-24T01:17:34;9.35;;;8.00;;
56537;SDS011;42435;53.292;6.000;2023-04-24T01:20:01;10.95;;;8.25;;
56537;SDS011;42435;53.292;6.000;2023-04-24T01:22:29;10.02;;;7.88;;
56537;SDS011;42435;53.292;6.000;2023-04-24T01:24:54;8.32;;;6.57;;
56537;SDS011;42435;53.292;6.000;2023-04-24T01:27:20;9.23;;;7.43;;
56537;SDS011;42435;53.292;6.000;2023-04-24T01:29:46;8.10;;;6.75;;
56537;SDS011;42435;53.292;6.000;2023-04-24T01:32:14;9.10;;;7.13;;
56537;SDS011;42435;53.292;6.000;2023-04-24T01:34:40;9.32;;;7.05;;
56537;SDS011;42435;53.292;6.000;2023-04-24T01:37:06;8.38;;;7.35;;
56537;SDS011;42435;53.292;6.000;2023-04-24T01:39:32;9.10;;;7.43;;
56537;SDS011;42435;53.292;6.000;2023-04-24T01:41:59;10.35;;;7.07;;
56537;SDS011;42435;53.292;6.000;2023-04-24T01:44:27;12.98;;;7.68;;
56537;SDS011;42435;53.292;6.000;2023-04-24T01:46:53;11.38;;;7.95;;
56537;SDS011;42435;53.292;6.000;2023-04-24T01:49:20;9.27;;;7.60;;
56537;SDS011;42435;53.292;6.000;2023-04-24T01:51:46;8.35;;;7.03;;
56537;SDS011;42435;53.292;6.000;2023-04-24T01:54:12;9.35;;;7.10;;
56537;SDS011;42435;53.292;6.000;2023-04-24T01:56:39;9.80;;;7.68;;
56537;SDS011;42435;53.292;6.000;2023-04-24T01:59:06;9.20;;;7.10;;
56537;SDS011;42435;53.292;6.000;2023-04-24T02:01:34;8.30;;;6.93;;
56537;SDS011;42435;53.292;6.000;2023-04-24T02:04:03;10.13;;;7.85;;
56537;SDS011;42435;53.292;6.000;2023-04-24T02:06:30;8.02;;;6.95;;
56537;SDS011;42435;53.292;6.000;2023-04-24T02:08:56;10.55;;;7.65;;
56537;SDS011;42435;53.292;6.000;2023-04-24T02:11:25;9.75;;;7.40;;
56537;SDS011;42435;53.292;6.000;2023-04-24T02:13:51;9.88;;;7.57;;
56537;SDS011;42435;53.292;6.000;2023-04-24T02:16:17;15.32;;;9.65;;
56537;SDS011;42435;53.292;6.000;2023-04-24T02:18:43;10.27;;;8.05;;
56537;SDS011;42435;53.292;6.000;2023-04-24T02:21:09;11.20;;;7.60;;
56537;SDS011;42435;53.292;6.000;2023-04-24T02:23:35;11.50;;;8.40;;
56537;SDS011;42435;53.292;6.000;2023-04-24T02:26:00;13.18;;;9.20;;
56537;SDS011;42435;53.292;6.000;2023-04-24T02:28:26;14.90;;;10.30;;
56537;SDS011;42435;53.292;6.000;2023-04-24T02:30:52;12.38;;;9.13;;
56537;SDS011;42435;53.292;6.000;2023-04-24T02:33:17;15.00;;;9.63;;
56537;SDS011;42435;53.292;6.000;2023-04-24T02:35:43;13.05;;;9.00;;
56537;SDS011;42435;53.292;6.000;2023-04-24T02:38:08;13.43;;;9.43;;
56537;SDS011;42435;53.292;6.000;2023-04-24T02:40:34;11.55;;;8.65;;
56537;SDS011;42435;53.292;6.000;2023-04-24T02:42:59;16.00;;;9.85;;
56537;SDS011;42435;53.292;6.000;2023-04-24T02:45:25;14.63;;;9.80;;
56537;SDS011;42435;53.292;6.000;2023-04-24T02:47:50;13.77;;;9.85;;
56537;SDS011;42435;53.292;6.000;2023-04-24T02:50:16;13.30;;;9.73;;
56537;SDS011;42435;53.292;6.000;2023-04-24T02:52:42;13.45;;;10.48;;
56537;SDS011;42435;53.292;6.000;2023-04-24T02:55:13;15.82;;;10.65;;
56537;SDS011;42435;53.292;6.000;2023-04-24T02:57:39;12.45;;;9.27;;
56537;SDS011;42435;53.292;6.000;2023-04-24T03:00:05;11.45;;;8.23;;
56537;SDS011;42435;53.292;6.000;2023-04-24T03:02:32;14.30;;;8.23;;
56537;SDS011;42435;53.292;6.000;2023-04-24T03:04:57;11.15;;;7.55;;
56537;SDS011;42435;53.292;6.000;2023-04-24T03:07:23;11.02;;;6.50;;
56537;SDS011;42435;53.292;6.000;2023-04-24T03:09:49;9.20;;;6.10;;
56537;SDS011;42435;53.292;6.000;2023-04-24T03:12:15;6.88;;;5.00;;
56537;SDS011;42435;53.292;6.000;2023-04-24T03:14:42;6.60;;;4.75;;
56537;SDS011;42435;53.292;6.000;2023-04-24T03:17:08;7.90;;;4.55;;
56537;SDS011;42435;53.292;6.000;2023-04-24T03:19:34;9.20;;;4.90;;
56537;SDS011;42435;53.292;6.000;2023-04-24T03:22:01;7.95;;;4.25;;
56537;SDS011;42435;53.292;6.000;2023-04-24T03:24:27;5.00;;;3.72;;
56537;SDS011;42435;53.292;6.000;2023-04-24T03:26:53;4.32;;;3.10;;
56537;SDS011;42435;53.292;6.000;2023-04-24T03:29:18;4.15;;;3.00;;
56537;SDS011;42435;53.292;6.000;2023-04-24T03:31:44;7.25;;;3.70;;
56537;SDS011;42435;53.292;6.000;2023-04-24T03:34:10;3.40;;;2.00;;
56537;SDS011;42435;53.292;6.000;2023-04-24T03:36:35;2.28;;;1.33;;
56537;SDS011;42435;53.292;6.000;2023-04-24T03:39:01;3.28;;;1.27;;
56537;SDS011;42435;53.292;6.000;2023-04-24T03:41:27;1.27;;;0.98;;
56537;SDS011;42435;53.292;6.000;2023-04-24T03:43:52;2.72;;;0.80;;
56537;SDS011;42435;53.292;6.000;2023-04-24T03:46:18;2.72;;;1.05;;
56537;SDS011;42435;53.292;6.000;2023-04-24T03:48:43;1.95;;;0.93;;
56537;SDS011;42435;53.292;6.000;2023-04-24T03:51:09;2.83;;;0.90;;
56537;SDS011;42435;53.292;6.000;2023-04-24T03:53:34;1.73;;;1.00;;
56537;SDS011;42435;53.292;6.000;2023-04-24T03:56:00;2.42;;;1.60;;
56537;SDS011;42435;53.292;6.000;2023-04-24T03:58:25;1.90;;;1.70;;
56537;SDS011;42435;53.292;6.000;2023-04-24T04:00:51;4.93;;;2.50;;
56537;SDS011;42435;53.292;6.000;2023-04-24T04:03:17;5.45;;;3.10;;
56537;SDS011;42435;53.292;6.000;2023-04-24T04:05:42;6.07;;;3.33;;
56537;SDS011;42435;53.292;6.000;2023-04-24T04:08:08;6.75;;;3.90;;
56537;SDS011;42435;53.292;6.000;2023-04-24T04:10:34;5.97;;;4.10;;
56537;SDS011;42435;53.292;6.000;2023-04-24T04:12:59;7.22;;;4.22;;
56537;SDS011;42435;53.292;6.000;2023-04-24T04:15:25;3.85;;;2.78;;
56537;SDS011;42435;53.292;6.000;2023-04-24T04:17:50;5.07;;;2.50;;
56537;SDS011;42435;53.292;6.000;2023-04-24T04:20:19;4.10;;;2.83;;
56537;SDS011;42435;53.292;6.000;2023-04-24T04:22:45;4.00;;;2.50;;
56537;SDS011;42435;53.292;6.000;2023-04-24T04:25:11;3.72;;;2.80;;
56537;SDS011;42435;53.292;6.000;2023-04-24T04:27:38;8.27;;;4.03;;
56537;SDS011;42435;53.292;6.000;2023-04-24T04:30:06;9.95;;;4.93;;
56537;SDS011;42435;53.292;6.000;2023-04-24T04:32:34;8.52;;;4.85;;
56537;SDS011;42435;53.292;6.000;2023-04-24T04:35:00;8.32;;;5.10;;
56537;SDS011;42435;53.292;6.000;2023-04-24T04:37:29;6.10;;;3.95;;
56537;SDS011;42435;53.292;6.000;2023-04-24T04:39:56;12.48;;;4.60;;
56537;SDS011;42435;53.292;6.000;2023-04-24T04:42:27;3.35;;;2.58;;
56537;SDS011;42435;53.292;6.000;2023-04-24T04:44:53;3.35;;;2.85;;
56537;SDS011;42435;53.292;6.000;2023-04-24T04:47:20;6.32;;;3.33;;
56537;SDS011;42435;53.292;6.000;2023-04-24T04:49:48;6.40;;;3.58;;
56537;SDS011;42435;53.292;6.000;2023-04-24T04:52:13;7.10;;;4.38;;
56537;SDS011;42435;53.292;6.000;2023-04-24T04:54:39;14.30;;;7.55;;
56537;SDS011;42435;53.292;6.000;2023-04-24T04:57:05;11.40;;;7.38;;
56537;SDS011;42435;53.292;6.000;2023-04-24T04:59:31;12.00;;;7.10;;
56537;SDS011;42435;53.292;6.000;2023-04-24T05:01:56;9.68;;;6.82;;
56537;SDS011;42435;53.292;6.000;2023-04-24T05:04:22;10.05;;;6.45;;
56537;SDS011;42435;53.292;6.000;2023-04-24T05:06:48;9.80;;;6.10;;
56537;SDS011;42435;53.292;6.000;2023-04-24T05:09:13;9.10;;;6.20;;
56537;SDS011;42435;53.292;6.000;2023-04-24T05:11:39;8.50;;;5.90;;
56537;SDS011;42435;53.292;6.000;2023-04-24T05:14:04;8.55;;;5.85;;
56537;SDS011;42435;53.292;6.000;2023-04-24T05:16:30;11.20;;;5.53;;
56537;SDS011;42435;53.292;6.000;2023-04-24T05:18:56;9.45;;;6.00;;
56537;SDS011;42435;53.292;6.000;2023-04-24T05:21:21;9.23;;;6.57;;
56537;SDS011;42435;53.292;6.000;2023-04-24T05:23:47;14.75;;;8.70;;
56537;SDS011;42435;53.292;6.000;2023-04-24T05:26:13;14.52;;;8.00;;
56537;SDS011;42435;53.292;6.000;2023-04-24T05:28:39;14.80;;;8.68;;
56537;SDS011;42435;53.292;6.000;2023-04-24T05:31:05;14.45;;;8.55;;
56537;SDS011;42435;53.292;6.000;2023-04-24T05:33:31;28.30;;;11.52;;
56537;SDS011;42435;53.292;6.000;2023-04-24T05:35:57;8.45;;;4.75;;
56537;SDS011;42435;53.292;6.000;2023-04-24T05:38:22;8.32;;;4.43;;
56537;SDS011;42435;53.292;6.000;2023-04-24T05:40:48;5.55;;;3.15;;
56537;SDS011;42435;53.292;6.000;2023-04-24T05:43:16;6.55;;;3.63;;
56537;SDS011;42435;53.292;6.000;2023-04-24T05:45:42;13.45;;;5.05;;
56537;SDS011;42435;53.292;6.000;2023-04-24T05:48:07;5.38;;;2.58;;
56537;SDS011;42435;53.292;6.000;2023-04-24T05:50:34;5.97;;;2.15;;
56537;SDS011;42435;53.292;6.000;2023-04-24T05:53:03;3.92;;;1.50;;
56537;SDS011;42435;53.292;6.000;2023-04-24T05:55:30;5.03;;;1.63;;
56537;SDS011;42435;53.292;6.000;2023-04-24T05:57:58;3.83;;;1.52;;
56537;SDS011;42435;53.292;6.000;2023-04-24T06:00:25;4.57;;;1.55;;
56537;SDS011;42435;53.292;6.000;2023-04-24T06:02:51;5.13;;;1.83;;
56537;SDS011;42435;53.292;6.000;2023-04-24T06:05:17;4.60;;;1.80;;
56537;SDS011;42435;53.292;6.000;2023-04-24T06:07:43;3.10;;;1.40;;
56537;SDS011;42435;53.292;6.000;2023-04-24T06:10:09;5.22;;;1.98;;
56537;SDS011;42435;53.292;6.000;2023-04-24T06:12:35;2.05;;;1.42;;
56537;SDS011;42435;53.292;6.000;2023-04-24T06:15:01;3.97;;;1.98;;
56537;SDS011;42435;53.292;6.000;2023-04-24T06:17:27;4.15;;;2.08;;
56537;SDS011;42435;53.292;6.000;2023-04-24T06:19:53;2.72;;;1.80;;
56537;SDS011;42435;53.292;6.000;2023-04-24T06:22:21;3.60;;;2.17;;
56537;SDS011;42435;53.292;6.000;2023-04-24T06:24:47;3.13;;;2.10;;
56537;SDS011;42435;53.292;6.000;2023-04-24T06:27:13;5.05;;;2.10;;
56537;SDS011;42435;53.292;6.000;2023-04-24T06:29:39;4.07;;;1.73;;
56537;SDS011;42435;53.292;6.000;2023-04-24T06:32:05;8.52;;;2.30;;
56537;SDS011;42435;53.292;6.000;2023-04-24T06:34:30;5.30;;;2.10;;
56537;SDS011;42435;53.292;6.000;2023-04-24T06:36:57;3.80;;;2.05;;
56537;SDS011;42435;53.292;6.000;2023-04-24T06:39:23;10.73;;;3.47;;
56537;SDS011;42435;53.292;6.000;2023-04-24T06:41:48;5.45;;;1.70;;
56537;SDS011;42435;53.292;6.000;2023-04-24T06:44:15;5.35;;;2.20;;
56537;SDS011;42435;53.292;6.000;2023-04-24T06:46:41;5.10;;;2.60;;
56537;SDS011;42435;53.292;6.000;2023-04-24T06:49:06;9.27;;;4.63;;
56537;SDS011;42435;53.292;6.000;2023-04-24T06:51:32;8.35;;;4.75;;
56537;SDS011;42435;53.292;6.000;2023-04-24T06:53:58;9.88;;;6.40;;
56537;SDS011;42435;53.292;6.000;2023-04-24T06:56:24;9.02;;;6.47;;
56537;SDS011;42435;53.292;6.000;2023-04-24T06:58:51;17.95;;;8.52;;
56537;SDS011;42435;53.292;6.000;2023-04-24T07:01:17;16.45;;;9.70;;
56537;SDS011;42435;53.292;6.000;2023-04-24T07:03:42;24.00;;;11.60;;
56537;SDS011;42435;53.292;6.000;2023-04-24T07:06:08;22.25;;;11.77;;
56537;SDS011;42435;53.292;6.000;2023-04-24T07:08:38;24.00;;;12.13;;
56537;SDS011;42435;53.292;6.000;2023-04-24T07:11:03;17.88;;;10.75;;
56537;SDS011;42435;53.292;6.000;2023-04-24T07:13:29;19.05;;;9.88;;
56537;SDS011;42435;53.292;6.000;2023-04-24T07:15:55;21.52;;;11.25;;
56537;SDS011;42435;53.292;6.000;2023-04-24T07:18:21;19.35;;;10.35;;
56537;SDS011;42435;53.292;6.000;2023-04-24T07:20:47;21.75;;;11.55;;
56537;SDS011;42435;53.292;6.000;2023-04-24T07:23:15;30.35;;;14.57;;
56537;SDS011;42435;53.292;6.000;2023-04-24T07:25:40;23.58;;;12.35;;
56537;SDS011;42435;53.292;6.000;2023-04-24T07:28:06;24.02;;;13.98;;
56537;SDS011;42435;53.292;6.000;2023-04-24T07:30:32;22.15;;;12.95;;
56537;SDS011;42435;53.292;6.000;2023-04-24T07:33:00;21.05;;;11.68;;
56537;SDS011;42435;53.292;6.000;2023-04-24T07:35:26;22.85;;;12.98;;
56537;SDS011;42435;53.292;6.000;2023-04-24T07:37:55;23.08;;;12.60;;
56537;SDS011;42435;53.292;6.000;2023-04-24T07:40:21;27.63;;;14.25;;
56537;SDS011;42435;53.292;6.000;2023-04-24T07:42:50;21.30;;;12.75;;
56537;SDS011;42435;53.292;6.000;2023-04-24T07:45:28;22.02;;;12.07;;
56537;SDS011;42435;53.292;6.000;2023-04-24T07:47:54;24.48;;;12.32;;
56537;SDS011;42435;53.292;6.000;2023-04-24T07:50:20;23.23;;;14.15;;
56537;SDS011;42435;53.292;6.000;2023-04-24T07:52:46;25.45;;;13.75;;
56537;SDS011;42435;53.292;6.000;2023-04-24T07:55:11;22.05;;;12.75;;
56537;SDS011;42435;53.292;6.000;2023-04-24T07:57:37;20.25;;;11.98;;
56537;SDS011;42435;53.292;6.000;2023-04-24T08:00:06;19.27;;;12.43;;
56537;SDS011;42435;53.292;6.000;2023-04-24T08:02:32;22.33;;;12.55;;
56537;SDS011;42435;53.292;6.000;2023-04-24T08:04:58;19.33;;;11.38;;
56537;SDS011;42435;53.292;6.000;2023-04-24T08:07:24;22.02;;;12.95;;
56537;SDS011;42435;53.292;6.000;2023-04-24T08:09:56;14.57;;;9.50;;
56537;SDS011;42435;53.292;6.000;2023-04-24T08:12:22;19.33;;;11.90;;
56537;SDS011;42435;53.292;6.000;2023-04-24T08:14:48;15.10;;;9.63;;
56537;SDS011;42435;53.292;6.000;2023-04-24T08:17:13;17.25;;;10.20;;
56537;SDS011;42435;53.292;6.000;2023-04-24T08:19:40;15.35;;;9.23;;
56537;SDS011;42435;53.292;6.000;2023-04-24T08:22:13;16.35;;;7.50;;
56537;SDS011;42435;53.292;6.000;2023-04-24T08:24:39;12.77;;;8.00;;
56537;SDS011;42435;53.292;6.000;2023-04-24T08:27:05;13.57;;;8.20;;
56537;SDS011;42435;53.292;6.000;2023-04-24T08:29:31;16.33;;;8.90;;
56537;SDS011;42435;53.292;6.000;2023-04-24T08:31:57;14.73;;;7.97;;
56537;SDS011;42435;53.292;6.000;2023-04-24T08:34:25;13.30;;;7.95;;
56537;SDS011;42435;53.292;6.000;2023-04-24T08:36:51;13.70;;;8.88;;
56537;SDS011;42435;53.292;6.000;2023-04-24T08:39:17;16.20;;;8.35;;
56537;SDS011;42435;53.292;6.000;2023-04-24T08:41:46;13.57;;;8.50;;
56537;SDS011;42435;53.292;6.000;2023-04-24T08:44:13;13.05;;;8.10;;
56537;SDS011;42435;53.292;6.000;2023-04-24T08:46:41;12.35;;;7.35;;
56537;SDS011;42435;53.292;6.000;2023-04-24T08:49:13;17.10;;;9.57;;
56537;SDS011;42435;53.292;6.000;2023-04-24T08:51:43;12.15;;;7.22;;
56537;SDS011;42435;53.292;6.000;2023-04-24T08:54:09;15.85;;;7.80;;
56537;SDS011;42435;53.292;6.000;2023-04-24T08:56:39;18.65;;;8.43;;
56537;SDS011;42435;53.292;6.000;2023-04-24T08:59:06;14.77;;;8.05;;
56537;SDS011;42435;53.292;6.000;2023-04-24T09:01:32;17.42;;;8.40;;
56537;SDS011;42435;53.292;6.000;2023-04-24T09:04:03;13.77;;;6.22;;
56537;SDS011;42435;53.292;6.000;2023-04-24T09:06:29;11.15;;;5.65;;
56537;SDS011;42435;53.292;6.000;2023-04-24T09:08:57;12.32;;;6.57;;
56537;SDS011;42435;53.292;6.000;2023-04-24T09:11:26;8.57;;;5.55;;
56537;SDS011;42435;53.292;6.000;2023-04-24T09:13:53;9.40;;;4.90;;
56537;SDS011;42435;53.292;6.000;2023-04-24T09:16:21;9.25;;;5.00;;
56537;SDS011;42435;53.292;6.000;2023-04-24T09:18:49;9.70;;;4.93;;
56537;SDS011;42435;53.292;6.000;2023-04-24T09:21:15;9.00;;;4.40;;
56537;SDS011;42435;53.292;6.000;2023-04-24T09:23:41;9.00;;;3.88;;
56537;SDS011;42435;53.292;6.000;2023-04-24T09:26:06;8.77;;;4.85;;
56537;SDS011;42435;53.292;6.000;2023-04-24T09:28:35;13.85;;;4.55;;
56537;SDS011;42435;53.292;6.000;2023-04-24T09:31:13;10.38;;;5.43;;
56537;SDS011;42435;53.292;6.000;2023-04-24T09:33:40;7.40;;;5.30;;
56537;SDS011;42435;53.292;6.000;2023-04-24T09:36:32;13.73;;;6.35;;
56537;SDS011;42435;53.292;6.000;2023-04-24T09:39:02;12.07;;;5.07;;
56537;SDS011;42435;53.292;6.000;2023-04-24T09:41:31;11.05;;;4.50;;
56537;SDS011;42435;53.292;6.000;2023-04-24T09:43:58;11.27;;;3.90;;
56537;SDS011;42435;53.292;6.000;2023-04-24T09:46:37;7.65;;;3.25;;
56537;SDS011;42435;53.292;6.000;2023-04-24T09:49:24;9.13;;;3.10;;
56537;SDS011;42435;53.292;6.000;2023-04-24T09:51:50;8.75;;;3.53;;
56537;SDS011;42435;53.292;6.000;2023-04-24T09:54:16;7.20;;;3.53;;
56537;SDS011;42435;53.292;6.000;2023-04-24T09:56:46;7.00;;;3.17;;
56537;SDS011;42435;53.292;6.000;2023-04-24T09:59:14;9.38;;;3.13;;
56537;SDS011;42435;53.292;6.000;2023-04-24T10:01:41;6.60;;;3.13;;
56537;SDS011;42435;53.292;6.000;2023-04-24T10:04:17;7.80;;;3.90;;
56537;SDS011;42435;53.292;6.000;2023-04-24T10:06:44;8.48;;;3.20;;
56537;SDS011;42435;53.292;6.000;2023-04-24T10:09:10;10.15;;;3.47;;
56537;SDS011;42435;53.292;6.000;2023-04-24T10:11:42;8.35;;;3.38;;
56537;SDS011;42435;53.292;6.000;2023-04-24T10:14:13;9.52;;;3.13;;
56537;SDS011;42435;53.292;6.000;2023-04-24T10:16:40;10.85;;;3.10;;
56537;SDS011;42435;53.292;6.000;2023-04-24T10:19:07;12.40;;;4.15;;
56537;SDS011;42435;53.292;6.000;2023-04-24T10:21:34;9.02;;;3.67;;
56537;SDS011;42435;53.292;6.000;2023-04-24T10:24:00;12.43;;;3.58;;
56537;SDS011;42435;53.292;6.000;2023-04-24T10:26:28;9.48;;;2.83;;
56537;SDS011;42435;53.292;6.000;2023-04-24T10:28:54;9.35;;;2.53;;
56537;SDS011;42435;53.292;6.000;2023-04-24T10:31:22;7.95;;;2.50;;
56537;SDS011;42435;53.292;6.000;2023-04-24T10:33:49;5.55;;;2.13;;
56537;SDS011;42435;53.292;6.000;2023-04-24T10:36:16;8.07;;;2.60;;
56537;SDS011;42435;53.292;6.000;2023-04-24T10:38:43;14.07;;;2.17;;
56537;SDS011;42435;53.292;6.000;2023-04-24T10:41:12;9.73;;;3.05;;
56537;SDS011;42435;53.292;6.000;2023-04-24T10:43:45;10.18;;;2.40;;
56537;SDS011;42435;53.292;6.000;2023-04-24T10:46:11;7.07;;;2.22;;
56537;SDS011;42435;53.292;6.000;2023-04-24T10:48:44;7.55;;;2.10;;
56537;SDS011;42435;53.292;6.000;2023-04-24T10:51:18;9.90;;;2.47;;
56537;SDS011;42435;53.292;6.000;2023-04-24T10:54:23;8.38;;;2.10;;
56537;SDS011;42435;53.292;6.000;2023-04-24T10:59:51;6.13;;;1.70;;
56537;SDS011;42435;53.292;6.000;2023-04-24T11:02:35;8.65;;;2.30;;
56537;SDS011;42435;53.292;6.000;2023-04-24T11:05:05;6.28;;;2.15;;
56537;SDS011;42435;53.292;6.000;2023-04-24T11:10:45;10.55;;;2.00;;
56537;SDS011;42435;53.292;6.000;2023-04-24T11:13:15;5.90;;;1.98;;
56537;SDS011;42435;53.292;6.000;2023-04-24T11:15:42;8.95;;;2.45;;
56537;SDS011;42435;53.292;6.000;2023-04-24T11:18:14;9.32;;;2.70;;
56537;SDS011;42435;53.292;6.000;2023-04-24T11:20:44;7.95;;;2.17;;
56537;SDS011;42435;53.292;6.000;2023-04-24T11:23:12;5.80;;;2.28;;
56537;SDS011;42435;53.292;6.000;2023-04-24T11:25:44;7.38;;;2.15;;
56537;SDS011;42435;53.292;6.000;2023-04-24T11:28:14;8.20;;;2.25;;
56537;SDS011;42435;53.292;6.000;2023-04-24T11:30:41;7.10;;;1.90;;
56537;SDS011;42435;53.292;6.000;2023-04-24T11:33:06;5.22;;;1.63;;
56537;SDS011;42435;53.292;6.000;2023-04-24T11:35:36;7.63;;;1.50;;
56537;SDS011;42435;53.292;6.000;2023-04-24T11:38:05;5.25;;;1.30;;
56537;SDS011;42435;53.292;6.000;2023-04-24T11:40:32;2.47;;;1.20;;
56537;SDS011;42435;53.292;6.000;2023-04-24T11:42:59;4.55;;;1.40;;
56537;SDS011;42435;53.292;6.000;2023-04-24T11:45:28;5.32;;;1.30;;
56537;SDS011;42435;53.292;6.000;2023-04-24T11:47:54;4.53;;;1.13;;
56537;SDS011;42435;53.292;6.000;2023-04-24T11:50:24;3.72;;;1.13;;
56537;SDS011;42435;53.292;6.000;2023-04-24T11:52:51;7.82;;;2.00;;
56537;SDS011;42435;53.292;6.000;2023-04-24T11:57:44;5.80;;;2.33;;
56537;SDS011;42435;53.292;6.000;2023-04-24T12:00:23;7.35;;;1.58;;
56537;SDS011;42435;53.292;6.000;2023-04-24T12:03:03;6.15;;;1.80;;
56537;SDS011;42435;53.292;6.000;2023-04-24T12:05:38;5.07;;;1.60;;
56537;SDS011;42435;53.292;6.000;2023-04-24T12:08:04;5.32;;;1.77;;
56537;SDS011;42435;53.292;6.000;2023-04-24T12:10:31;5.85;;;1.10;;
56537;SDS011;42435;53.292;6.000;2023-04-24T12:12:58;8.18;;;1.20;;
56537;SDS011;42435;53.292;6.000;2023-04-24T12:15:25;5.30;;;1.45;;
56537;SDS011;42435;53.292;6.000;2023-04-24T12:17:52;2.67;;;1.05;;
56537;SDS011;42435;53.292;6.000;2023-04-24T12:20:23;5.90;;;1.27;;
56537;SDS011;42435;53.292;6.000;2023-04-24T12:25:19;6.50;;;1.17;;
56537;SDS011;42435;53.292;6.000;2023-04-24T12:27:52;6.55;;;1.50;;
56537;SDS011;42435;53.292;6.000;2023-04-24T12:30:48;3.22;;;1.30;;
56537;SDS011;42435;53.292;6.000;2023-04-24T12:33:18;4.88;;;0.88;;
56537;SDS011;42435;53.292;6.000;2023-04-24T12:35:44;3.97;;;0.95;;
56537;SDS011;42435;53.292;6.000;2023-04-24T12:38:11;5.90;;;1.20;;
56537;SDS011;42435;53.292;6.000;2023-04-24T12:40:38;5.82;;;1.10;;
56537;SDS011;42435;53.292;6.000;2023-04-24T12:43:19;3.65;;;1.40;;
56537;SDS011;42435;53.292;6.000;2023-04-24T12:45:51;5.65;;;0.98;;
56537;SDS011;42435;53.292;6.000;2023-04-24T12:48:17;3.25;;;0.70;;
56537;SDS011;42435;53.292;6.000;2023-04-24T12:50:43;3.33;;;0.73;;
56537;SDS011;42435;53.292;6.000;2023-04-24T12:53:09;2.90;;;0.70;;
56537;SDS011;42435;53.292;6.000;2023-04-24T12:55:35;3.95;;;0.80;;
56537;SDS011;42435;53.292;6.000;2023-04-24T12:58:00;3.28;;;0.70;;
56537;SDS011;42435;53.292;6.000;2023-04-24T13:00:27;2.15;;;0.60;;
56537;SDS011;42435;53.292;6.000;2023-04-24T13:02:53;4.15;;;0.90;;
56537;SDS011;42435;53.292;6.000;2023-04-24T13:05:19;3.97;;;0.93;;
56537;SDS011;42435;53.292;6.000;2023-04-24T13:07:45;4.88;;;1.33;;
56537;SDS011;42435;53.292;6.000;2023-04-24T13:10:12;8.45;;;1.70;;
56537;SDS011;42435;53.292;6.000;2023-04-24T13:12:38;3.45;;;1.27;;
56537;SDS011;42435;53.292;6.000;2023-04-24T13:15:04;6.43;;;1.70;;
56537;SDS011;42435;53.292;6.000;2023-04-24T13:17:30;9.35;;;2.58;;
56537;SDS011;42435;53.292;6.000;2023-04-24T13:31:10;12.70;;;3.55;;
56537;SDS011;42435;53.292;6.000;2023-04-24T13:33:36;6.60;;;2.55;;
56537;SDS011;42435;53.292;6.000;2023-04-24T13:36:02;5.13;;;2.53;;
56537;SDS011;42435;53.292;6.000;2023-04-24T13:38:27;6.78;;;3.00;;
56537;SDS011;42435;53.292;6.000;2023-04-24T13:40:56;6.25;;;2.30;;
56537;SDS011;42435;53.292;6.000;2023-04-24T13:43:21;6.88;;;2.15;;
56537;SDS011;42435;53.292;6.000;2023-04-24T13:45:47;8.07;;;2.92;;
56537;SDS011;42435;53.292;6.000;2023-04-24T13:48:13;6.13;;;2.60;;
56537;SDS011;42435;53.292;6.000;2023-04-24T13:50:40;10.20;;;2.67;;
56537;SDS011;42435;53.292;6.000;2023-04-24T13:53:06;8.90;;;2.58;;
56537;SDS011;42435;53.292;6.000;2023-04-24T13:55:32;6.75;;;2.40;;
56537;SDS011;42435;53.292;6.000;2023-04-24T13:57:58;11.00;;;3.65;;
56537;SDS011;42435;53.292;6.000;2023-04-24T14:00:23;10.15;;;3.20;;
56537;SDS011;42435;53.292;6.000;2023-04-24T14:02:49;11.80;;;4.10;;
56537;SDS011;42435;53.292;6.000;2023-04-24T14:05:15;11.05;;;2.83;;
56537;SDS011;42435;53.292;6.000;2023-04-24T14:07:41;12.05;;;2.70;;
56537;SDS011;42435;53.292;6.000;2023-04-24T14:10:07;9.63;;;2.40;;
56537;SDS011;42435;53.292;6.000;2023-04-24T14:12:33;10.48;;;4.03;;
56537;SDS011;42435;53.292;6.000;2023-04-24T14:14:59;11.60;;;3.13;;
56537;SDS011;42435;53.292;6.000;2023-04-24T14:17:26;8.55;;;3.78;;
56537;SDS011;42435;53.292;6.000;2023-04-24T14:19:52;10.05;;;3.80;;
56537;SDS011;42435;53.292;6.000;2023-04-24T14:22:21;12.18;;;3.97;;
56537;SDS011;42435;53.292;6.000;2023-04-24T14:24:46;12.65;;;3.70;;
56537;SDS011;42435;53.292;6.000;2023-04-24T14:27:12;15.80;;;3.38;;
56537;SDS011;42435;53.292;6.000;2023-04-24T14:29:38;9.77;;;3.33;;
56537;SDS011;42435;53.292;6.000;2023-04-24T14:35:45;10.45;;;3.45;;
56537;SDS011;42435;53.292;6.000;2023-04-24T14:38:11;11.95;;;3.47;;
56537;SDS011;42435;53.292;6.000;2023-04-24T14:40:36;9.80;;;3.40;;
56537;SDS011;42435;53.292;6.000;2023-04-24T14:43:02;10.40;;;3.53;;
56537;SDS011;42435;53.292;6.000;2023-04-24T14:45:28;11.25;;;3.42;;
56537;SDS011;42435;53.292;6.000;2023-04-24T14:47:54;16.08;;;5.30;;
56537;SDS011;42435;53.292;6.000;2023-04-24T14:50:21;13.77;;;4.28;;
56537;SDS011;42435;53.292;6.000;2023-04-24T14:52:46;12.43;;;3.90;;
56537;SDS011;42435;53.292;6.000;2023-04-24T14:55:12;11.77;;;3.90;;
56537;SDS011;42435;53.292;6.000;2023-04-24T14:57:41;11.70;;;3.40;;
56537;SDS011;42435;53.292;6.000;2023-04-24T15:00:07;12.63;;;4.43;;
56537;SDS011;42435;53.292;6.000;2023-04-24T15:02:35;8.95;;;3.85;;
56537;SDS011;42435;53.292;6.000;2023-04-24T15:05:04;8.38;;;2.65;;
56537;SDS011;42435;53.292;6.000;2023-04-24T15:07:31;11.43;;;3.47;;